createdAt,value
2018-09-13T00:00:29.173Z,1015.97
2018-09-13T00:01:04.477Z,1015.95
2018-09-13T00:01:39.771Z,1015.97
2018-09-13T00:02:15.198Z,1016.00
2018-09-13T00:02:50.398Z,1015.97
2018-09-13T00:03:25.686Z,1015.99
2018-09-13T00:04:01.227Z,1015.95
2018-09-13T00:04:36.888Z,1015.95
2018-09-13T00:05:12.277Z,1015.92
2018-09-13T00:05:47.747Z,1015.93
2018-09-13T00:06:22.948Z,1015.93
2018-09-13T00:06:58.411Z,1015.96
2018-09-13T00:07:33.603Z,1015.93
2018-09-13T00:08:09.141Z,1015.97
2018-09-13T00:08:44.857Z,1015.95
2018-09-13T00:09:20.381Z,1015.95
2018-09-13T00:09:55.760Z,1015.94
2018-09-13T00:10:31.066Z,1015.91
2018-09-13T00:11:06.273Z,1015.92
2018-09-13T00:11:41.907Z,1015.90
2018-09-13T00:12:18.647Z,1015.90
2018-09-13T00:12:54.061Z,1015.87
2018-09-13T00:13:29.450Z,1015.84
2018-09-13T00:14:04.983Z,1015.82
2018-09-13T00:14:40.411Z,1015.84
2018-09-13T00:15:16.099Z,1015.80
2018-09-13T00:15:51.411Z,1015.81
2018-09-13T00:16:26.937Z,1015.81
2018-09-13T00:17:02.359Z,1015.84
2018-09-13T00:17:37.809Z,1015.85
2018-09-13T00:18:13.387Z,1015.88
2018-09-13T00:18:48.840Z,1015.86
2018-09-13T00:19:24.694Z,1015.89
2018-09-13T00:19:59.929Z,1015.91
2018-09-13T00:20:35.441Z,1015.88
2018-09-13T00:21:11.188Z,1015.90
2018-09-13T00:21:46.693Z,1015.91
2018-09-13T00:22:21.818Z,1015.91
2018-09-13T00:22:57.226Z,1015.91
2018-09-13T00:23:32.527Z,1015.94
2018-09-13T00:24:07.777Z,1015.93
2018-09-13T00:24:43.110Z,1015.94
2018-09-13T00:25:18.624Z,1015.93
2018-09-13T00:25:54.069Z,1015.95
2018-09-13T00:26:29.388Z,1015.93
2018-09-13T00:27:04.796Z,1015.92
2018-09-13T00:27:40.021Z,1015.88
2018-09-13T00:28:15.268Z,1015.88
2018-09-13T00:28:50.838Z,1015.89
2018-09-13T00:29:26.254Z,1015.84
2018-09-13T00:30:01.474Z,1015.85
2018-09-13T00:30:36.624Z,1015.83
2018-09-13T00:31:12.082Z,1015.84
2018-09-13T00:31:47.532Z,1015.79
2018-09-13T00:32:22.560Z,1015.82
2018-09-13T00:32:58.236Z,1015.85
2018-09-13T00:33:33.365Z,1015.85
2018-09-13T00:34:08.803Z,1015.83
2018-09-13T00:34:44.450Z,1015.83
2018-09-13T00:35:19.964Z,1015.86
2018-09-13T00:35:55.597Z,1015.84
2018-09-13T00:36:31.135Z,1015.86
2018-09-13T00:37:06.368Z,1015.83
2018-09-13T00:37:41.654Z,1015.84
2018-09-13T00:38:16.986Z,1015.86
2018-09-13T00:38:52.343Z,1015.82
2018-09-13T00:39:27.670Z,1015.82
2018-09-13T00:40:03.090Z,1015.79
2018-09-13T00:40:38.414Z,1015.77
2018-09-13T00:41:13.753Z,1015.75
2018-09-13T00:41:49.126Z,1015.71
2018-09-13T00:42:24.556Z,1015.68
2018-09-13T00:42:59.872Z,1015.69
2018-09-13T00:43:35.126Z,1015.65
2018-09-13T00:44:10.444Z,1015.62
2018-09-13T00:44:45.920Z,1015.62
2018-09-13T00:45:21.510Z,1015.63
2018-09-13T00:45:56.992Z,1015.60
2018-09-13T00:46:32.574Z,1015.61
2018-09-13T00:47:07.953Z,1015.60
2018-09-13T00:47:43.681Z,1015.57
2018-09-13T00:48:19.114Z,1015.60
2018-09-13T00:48:54.458Z,1015.56
2018-09-13T00:49:29.584Z,1015.53
2018-09-13T00:50:04.960Z,1015.56
2018-09-13T00:50:40.361Z,1015.56
2018-09-13T00:51:15.755Z,1015.54
2018-09-13T00:51:51.185Z,1015.55
2018-09-13T00:52:26.611Z,1015.52
2018-09-13T00:53:02.263Z,1015.56
2018-09-13T00:53:37.414Z,1015.54
2018-09-13T00:54:13.301Z,1015.48
2018-09-13T00:54:48.706Z,1015.52
2018-09-13T00:55:24.261Z,1015.51
2018-09-13T00:55:59.537Z,1015.50
2018-09-13T00:56:35.319Z,1015.55
2018-09-13T00:57:10.599Z,1015.54
2018-09-13T00:57:46.048Z,1015.52
2018-09-13T00:58:21.477Z,1015.54
2018-09-13T00:58:56.855Z,1015.55
2018-09-13T00:59:32.143Z,1015.54
2018-09-13T01:00:07.784Z,1015.55
2018-09-13T01:00:43.138Z,1015.55
2018-09-13T01:01:18.657Z,1015.53
2018-09-13T01:01:53.878Z,1015.54
2018-09-13T01:02:29.138Z,1015.52
2018-09-13T01:03:04.282Z,1015.50
2018-09-13T01:03:39.787Z,1015.52
2018-09-13T01:04:15.145Z,1015.54
2018-09-13T01:04:50.597Z,1015.53
2018-09-13T01:05:25.702Z,1015.54
2018-09-13T01:06:01.248Z,1015.56
2018-09-13T01:06:36.839Z,1015.54
2018-09-13T01:07:12.218Z,1015.55
2018-09-13T01:07:47.613Z,1015.57
2018-09-13T01:08:23.111Z,1015.55
2018-09-13T01:08:58.349Z,1015.59
2018-09-13T01:09:33.767Z,1015.60
2018-09-13T01:10:09.332Z,1015.60
2018-09-13T01:10:44.746Z,1015.60
2018-09-13T01:11:20.532Z,1015.62
2018-09-13T01:11:55.979Z,1015.62
2018-09-13T01:12:31.247Z,1015.60
2018-09-13T01:13:06.450Z,1015.62
2018-09-13T01:13:42.079Z,1015.60
2018-09-13T01:14:17.533Z,1015.62
2018-09-13T01:14:52.964Z,1015.63
2018-09-13T01:15:28.642Z,1015.61
2018-09-13T01:16:04.246Z,1015.62
2018-09-13T01:16:39.700Z,1015.64
2018-09-13T01:17:14.951Z,1015.63
2018-09-13T01:17:50.306Z,1015.62
2018-09-13T01:18:25.719Z,1015.60
2018-09-13T01:19:01.302Z,1015.60
2018-09-13T01:19:36.623Z,1015.58
2018-09-13T01:20:11.874Z,1015.59
2018-09-13T01:20:47.645Z,1015.56
2018-09-13T01:21:22.969Z,1015.56
2018-09-13T01:21:58.436Z,1015.56
2018-09-13T01:22:33.839Z,1015.59
2018-09-13T01:23:09.380Z,1015.56
2018-09-13T01:23:44.679Z,1015.55
2018-09-13T01:24:20.161Z,1015.54
2018-09-13T01:24:55.774Z,1015.54
2018-09-13T01:25:31.190Z,1015.53
2018-09-13T01:26:06.427Z,1015.55
2018-09-13T01:26:41.742Z,1015.54
2018-09-13T01:27:17.288Z,1015.52
2018-09-13T01:27:52.566Z,1015.55
2018-09-13T01:28:27.904Z,1015.56
2018-09-13T01:29:03.231Z,1015.57
2018-09-13T01:29:38.284Z,1015.54
2018-09-13T01:30:13.639Z,1015.53
2018-09-13T01:30:49.159Z,1015.57
2018-09-13T01:31:24.546Z,1015.55
2018-09-13T01:32:00.332Z,1015.54
2018-09-13T01:32:35.549Z,1015.54
2018-09-13T01:33:11.050Z,1015.53
2018-09-13T01:33:46.628Z,1015.52
2018-09-13T01:34:22.277Z,1015.52
2018-09-13T01:34:57.487Z,1015.51
2018-09-13T01:35:32.947Z,1015.50
2018-09-13T01:36:08.488Z,1015.50
2018-09-13T01:36:43.845Z,1015.51
2018-09-13T01:37:19.052Z,1015.50
2018-09-13T01:37:54.451Z,1015.51
2018-09-13T01:38:29.728Z,1015.50
2018-09-13T01:39:05.310Z,1015.48
2018-09-13T01:39:40.631Z,1015.48
2018-09-13T01:40:16.119Z,1015.51
2018-09-13T01:40:51.467Z,1015.48
2018-09-13T01:41:27.125Z,1015.47
2018-09-13T01:42:02.758Z,1015.46
2018-09-13T01:42:38.202Z,1015.50
2018-09-13T01:43:13.668Z,1015.48
2018-09-13T01:43:48.841Z,1015.48
2018-09-13T01:44:24.216Z,1015.45
2018-09-13T01:44:59.445Z,1015.44
2018-09-13T01:45:35.015Z,1015.44
2018-09-13T01:46:10.325Z,1015.47
2018-09-13T01:46:45.825Z,1015.45
2018-09-13T01:47:20.954Z,1015.46
2018-09-13T01:47:56.567Z,1015.44
2018-09-13T01:48:31.871Z,1015.44
2018-09-13T01:49:07.229Z,1015.45
2018-09-13T01:49:42.575Z,1015.41
2018-09-13T01:50:18.028Z,1015.43
2018-09-13T01:50:53.546Z,1015.44
2018-09-13T01:51:28.973Z,1015.45
2018-09-13T01:52:04.334Z,1015.45
2018-09-13T01:52:39.729Z,1015.42
2018-09-13T01:53:14.888Z,1015.42
2018-09-13T01:53:50.369Z,1015.38
2018-09-13T01:54:25.826Z,1015.40
2018-09-13T01:55:01.342Z,1015.36
2018-09-13T01:55:36.821Z,1015.36
2018-09-13T01:56:12.198Z,1015.39
2018-09-13T01:56:47.436Z,1015.38
2018-09-13T01:57:22.923Z,1015.35
2018-09-13T01:57:58.474Z,1015.36
2018-09-13T01:58:33.861Z,1015.35
2018-09-13T01:59:09.379Z,1015.35
2018-09-13T01:59:44.725Z,1015.39
2018-09-13T02:00:20.409Z,1015.34
2018-09-13T02:00:55.730Z,1015.38
2018-09-13T02:01:30.998Z,1015.35
2018-09-13T02:02:06.151Z,1015.37
2018-09-13T02:02:41.349Z,1015.37
2018-09-13T02:03:17.121Z,1015.34
2018-09-13T02:03:52.490Z,1015.33
2018-09-13T02:04:27.680Z,1015.35
2018-09-13T02:05:02.946Z,1015.33
2018-09-13T02:05:38.264Z,1015.33
2018-09-13T02:06:13.567Z,1015.29
2018-09-13T02:06:48.893Z,1015.24
2018-09-13T02:07:24.381Z,1015.25
2018-09-13T02:07:59.645Z,1015.25
2018-09-13T02:08:34.939Z,1015.24
2018-09-13T02:09:10.380Z,1015.26
2018-09-13T02:09:45.805Z,1015.24
2018-09-13T02:10:21.509Z,1015.23
2018-09-13T02:10:56.720Z,1015.23
2018-09-13T02:11:32.090Z,1015.28
2018-09-13T02:12:07.534Z,1015.26
2018-09-13T02:12:42.764Z,1015.26
2018-09-13T02:13:18.205Z,1015.26
2018-09-13T02:13:53.733Z,1015.25
2018-09-13T02:14:28.815Z,1015.26
2018-09-13T02:15:04.273Z,1015.28
2018-09-13T02:15:39.705Z,1015.28
2018-09-13T02:16:15.424Z,1015.27
2018-09-13T02:16:51.132Z,1015.27
2018-09-13T02:17:26.347Z,1015.27
2018-09-13T02:18:01.774Z,1015.27
2018-09-13T02:18:37.439Z,1015.28
2018-09-13T02:19:12.860Z,1015.21
2018-09-13T02:19:48.237Z,1015.23
2018-09-13T02:20:23.524Z,1015.23
2018-09-13T02:20:58.840Z,1015.22
2018-09-13T02:21:34.025Z,1015.20
2018-09-13T02:22:09.268Z,1015.20
2018-09-13T02:22:45.054Z,1015.20
2018-09-13T02:23:20.393Z,1015.18
2018-09-13T02:23:55.517Z,1015.15
2018-09-13T02:24:31.002Z,1015.13
2018-09-13T02:25:06.407Z,1015.15
2018-09-13T02:25:41.889Z,1015.15
2018-09-13T02:26:17.350Z,1015.15
2018-09-13T02:26:52.727Z,1015.18
2018-09-13T02:27:27.793Z,1015.19
2018-09-13T02:28:03.162Z,1015.18
2018-09-13T02:28:38.680Z,1015.21
2018-09-13T02:29:13.989Z,1015.19
2018-09-13T02:29:49.591Z,1015.18
2018-09-13T02:30:25.069Z,1015.20
2018-09-13T02:31:00.386Z,1015.17
2018-09-13T02:31:35.845Z,1015.18
2018-09-13T02:32:11.178Z,1015.18
2018-09-13T02:32:46.335Z,1015.17
2018-09-13T02:33:21.477Z,1015.15
2018-09-13T02:33:56.612Z,1015.18
2018-09-13T02:34:32.157Z,1015.15
2018-09-13T02:35:07.595Z,1015.16
2018-09-13T02:35:42.853Z,1015.13
2018-09-13T02:36:18.275Z,1015.13
2018-09-13T02:36:53.414Z,1015.11
2018-09-13T02:37:29.218Z,1015.12
2018-09-13T02:38:04.716Z,1015.09
2018-09-13T02:38:40.298Z,1015.08
2018-09-13T02:39:15.792Z,1015.11
2018-09-13T02:39:51.150Z,1015.08
2018-09-13T02:40:26.686Z,1015.09
2018-09-13T02:41:02.206Z,1015.10
2018-09-13T02:41:37.667Z,1015.14
2018-09-13T02:42:13.115Z,1015.08
2018-09-13T02:42:48.667Z,1015.09
2018-09-13T02:43:24.257Z,1015.11
2018-09-13T02:43:59.673Z,1015.09
2018-09-13T02:44:35.084Z,1015.10
2018-09-13T02:45:10.586Z,1015.09
2018-09-13T02:45:46.060Z,1015.08
2018-09-13T02:46:21.397Z,1015.06
2018-09-13T02:46:56.887Z,1015.05
2018-09-13T02:47:32.394Z,1015.09
2018-09-13T02:48:07.715Z,1015.11
2018-09-13T02:48:43.197Z,1015.10
2018-09-13T02:49:18.559Z,1015.10
2018-09-13T02:49:54.060Z,1015.07
2018-09-13T02:50:29.155Z,1015.07
2018-09-13T02:51:04.616Z,1015.07
2018-09-13T02:51:40.012Z,1015.06
2018-09-13T02:52:15.755Z,1015.02
2018-09-13T02:52:51.439Z,1015.00
2018-09-13T02:53:26.975Z,1015.01
2018-09-13T02:54:02.119Z,1014.97
2018-09-13T02:54:37.262Z,1014.98
2018-09-13T02:55:12.678Z,1014.99
2018-09-13T02:55:47.783Z,1014.99
2018-09-13T02:56:23.583Z,1014.98
2018-09-13T02:56:59.498Z,1014.99
2018-09-13T02:57:34.657Z,1014.97
2018-09-13T02:58:10.015Z,1014.97
2018-09-13T02:58:45.431Z,1014.99
2018-09-13T02:59:20.654Z,1014.94
2018-09-13T02:59:56.054Z,1014.94
2018-09-13T03:00:31.614Z,1014.97
2018-09-13T03:01:06.928Z,1014.98
2018-09-13T03:01:42.385Z,1014.96
2018-09-13T03:02:17.631Z,1014.95
2018-09-13T03:02:52.952Z,1014.96
2018-09-13T03:03:28.552Z,1014.98
2018-09-13T03:04:03.567Z,1014.95
2018-09-13T03:04:38.992Z,1014.91
2018-09-13T03:05:14.411Z,1014.96
2018-09-13T03:05:49.826Z,1014.92
2018-09-13T03:06:25.124Z,1014.94
2018-09-13T03:07:00.576Z,1014.95
2018-09-13T03:07:35.913Z,1014.92
2018-09-13T03:08:11.262Z,1014.95
2018-09-13T03:08:46.591Z,1014.95
2018-09-13T03:09:21.988Z,1014.93
2018-09-13T03:09:57.754Z,1014.92
2018-09-13T03:10:33.089Z,1014.90
2018-09-13T03:11:08.321Z,1014.92
2018-09-13T03:11:43.541Z,1014.89
2018-09-13T03:12:18.730Z,1014.88
2018-09-13T03:12:54.105Z,1014.88
2018-09-13T03:13:29.402Z,1014.86
2018-09-13T03:14:04.724Z,1014.83
2018-09-13T03:14:39.964Z,1014.80
2018-09-13T03:15:15.243Z,1014.87
2018-09-13T03:15:50.644Z,1014.86
2018-09-13T03:16:26.084Z,1014.89
2018-09-13T03:17:01.541Z,1014.88
2018-09-13T03:17:36.934Z,1014.86
2018-09-13T03:18:12.233Z,1014.87
2018-09-13T03:18:47.478Z,1014.86
2018-09-13T03:19:22.601Z,1014.89
2018-09-13T03:19:57.957Z,1014.87
2018-09-13T03:20:33.420Z,1014.91
2018-09-13T03:21:08.921Z,1014.89
2018-09-13T03:21:44.125Z,1014.87
2018-09-13T03:22:19.785Z,1014.88
2018-09-13T03:22:55.337Z,1014.87
2018-09-13T03:23:30.490Z,1014.88
2018-09-13T03:24:06.156Z,1014.89
2018-09-13T03:24:41.347Z,1014.90
2018-09-13T03:25:16.659Z,1014.92
2018-09-13T03:25:52.141Z,1014.93
2018-09-13T03:26:27.587Z,1014.95
2018-09-13T03:27:02.960Z,1014.96
2018-09-13T03:27:38.334Z,1014.95
2018-09-13T03:28:13.647Z,1014.96
2018-09-13T03:28:49.193Z,1014.98
2018-09-13T03:29:24.417Z,1014.97
2018-09-13T03:29:59.775Z,1014.98
2018-09-13T03:30:35.264Z,1014.99
2018-09-13T03:31:10.821Z,1014.97
2018-09-13T03:31:46.236Z,1015.00
2018-09-13T03:32:21.622Z,1014.99
2018-09-13T03:32:56.939Z,1015.01
2018-09-13T03:33:32.435Z,1014.99
2018-09-13T03:34:07.931Z,1014.98
2018-09-13T03:34:43.268Z,1014.99
2018-09-13T03:35:18.937Z,1014.99
2018-09-13T03:35:54.289Z,1015.01
2018-09-13T03:36:29.767Z,1014.99
2018-09-13T03:37:05.051Z,1015.03
2018-09-13T03:37:40.585Z,1015.02
2018-09-13T03:38:16.036Z,1014.99
2018-09-13T03:38:51.465Z,1015.01
2018-09-13T03:39:26.799Z,1015.00
2018-09-13T03:40:02.311Z,1015.00
2018-09-13T03:40:38.103Z,1015.01
2018-09-13T03:41:13.560Z,1015.00
2018-09-13T03:41:49.069Z,1014.98
2018-09-13T03:42:24.402Z,1015.03
2018-09-13T03:42:59.724Z,1015.04
2018-09-13T03:43:35.066Z,1015.06
2018-09-13T03:44:10.418Z,1015.04
2018-09-13T03:44:45.823Z,1015.07
2018-09-13T03:45:20.902Z,1015.07
2018-09-13T03:45:56.256Z,1015.07
2018-09-13T03:46:31.649Z,1015.10
2018-09-13T03:47:06.895Z,1015.08
2018-09-13T03:47:42.397Z,1015.08
2018-09-13T03:48:17.606Z,1015.07
2018-09-13T03:48:52.967Z,1015.04
2018-09-13T03:49:28.252Z,1015.07
2018-09-13T03:50:03.600Z,1015.07
2018-09-13T03:50:38.919Z,1015.04
2018-09-13T03:51:14.129Z,1015.06
2018-09-13T03:51:49.646Z,1015.02
2018-09-13T03:52:24.964Z,1015.06
2018-09-13T03:53:00.197Z,1015.06
2018-09-13T03:53:35.505Z,1015.06
2018-09-13T03:54:10.928Z,1015.05
2018-09-13T03:54:46.223Z,1015.05
2018-09-13T03:55:21.303Z,1015.05
2018-09-13T03:55:56.633Z,1015.03
2018-09-13T03:56:32.085Z,1015.08
2018-09-13T03:57:07.320Z,1015.03
2018-09-13T03:57:42.859Z,1015.01
2018-09-13T03:58:18.252Z,1014.99
2018-09-13T03:58:53.532Z,1015.03
2018-09-13T03:59:28.745Z,1014.99
2018-09-13T04:00:04.213Z,1015.00
2018-09-13T04:00:39.640Z,1015.00
2018-09-13T04:01:14.675Z,1014.98
2018-09-13T04:01:50.058Z,1015.01
2018-09-13T04:02:25.620Z,1015.01
2018-09-13T04:03:00.593Z,1015.02
2018-09-13T04:03:35.921Z,1015.02
2018-09-13T04:04:11.135Z,1014.99
2018-09-13T04:04:46.784Z,1015.03
2018-09-13T04:05:22.420Z,1015.01
2018-09-13T04:05:57.756Z,1015.00
2018-09-13T04:06:33.324Z,1015.01
2018-09-13T04:07:08.929Z,1014.99
2018-09-13T04:07:44.309Z,1014.99
2018-09-13T04:08:19.479Z,1014.98
2018-09-13T04:08:55.194Z,1015.00
2018-09-13T04:09:30.541Z,1015.02
2018-09-13T04:10:06.035Z,1014.99
2018-09-13T04:10:41.295Z,1015.00
2018-09-13T04:11:16.725Z,1015.02
2018-09-13T04:11:52.079Z,1015.02
2018-09-13T04:12:27.235Z,1015.03
2018-09-13T04:13:02.536Z,1015.00
2018-09-13T04:13:37.916Z,1014.99
2018-09-13T04:14:13.467Z,1015.01
2018-09-13T04:14:48.946Z,1014.99
2018-09-13T04:15:24.640Z,1015.02
2018-09-13T04:16:00.132Z,1014.98
2018-09-13T04:16:35.394Z,1015.00
2018-09-13T04:17:10.827Z,1014.99
2018-09-13T04:17:46.185Z,1015.01
2018-09-13T04:18:21.504Z,1015.06
2018-09-13T04:18:56.907Z,1015.04
2018-09-13T04:19:32.099Z,1015.00
2018-09-13T04:20:07.158Z,1015.01
2018-09-13T04:20:42.410Z,1015.02
2018-09-13T04:21:18.228Z,1015.00
2018-09-13T04:21:53.562Z,1015.01
2018-09-13T04:22:29.052Z,1014.97
2018-09-13T04:23:04.356Z,1014.96
2018-09-13T04:23:39.725Z,1014.97
2018-09-13T04:24:15.016Z,1014.94
2018-09-13T04:24:50.513Z,1014.99
2018-09-13T04:25:25.708Z,1014.98
2018-09-13T04:26:00.827Z,1015.01
2018-09-13T04:26:36.478Z,1014.99
2018-09-13T04:27:11.756Z,1014.95
2018-09-13T04:27:47.554Z,1014.95
2018-09-13T04:28:22.743Z,1014.95
2018-09-13T04:28:58.367Z,1014.93
2018-09-13T04:29:33.680Z,1014.97
2018-09-13T04:30:09.221Z,1014.95
2018-09-13T04:30:44.428Z,1014.96
2018-09-13T04:31:19.616Z,1014.95
2018-09-13T04:31:54.966Z,1014.97
2018-09-13T04:32:30.263Z,1014.96
2018-09-13T04:33:05.784Z,1014.94
2018-09-13T04:33:41.032Z,1014.95
2018-09-13T04:34:16.373Z,1014.96
2018-09-13T04:34:51.847Z,1014.91
2018-09-13T04:35:27.349Z,1014.96
2018-09-13T04:36:03.065Z,1014.96
2018-09-13T04:36:38.121Z,1014.97
2018-09-13T04:37:13.418Z,1014.97
2018-09-13T04:37:49.026Z,1014.96
2018-09-13T04:38:24.425Z,1014.95
2018-09-13T04:38:59.907Z,1014.94
2018-09-13T04:39:35.262Z,1014.97
2018-09-13T04:40:10.644Z,1014.96
2018-09-13T04:40:46.158Z,1014.95
2018-09-13T04:41:21.518Z,1014.94
2018-09-13T04:41:57.021Z,1014.95
2018-09-13T04:42:32.853Z,1014.97
2018-09-13T04:43:08.137Z,1014.98
2018-09-13T04:43:43.353Z,1014.94
2018-09-13T04:44:18.732Z,1014.95
2018-09-13T04:44:53.985Z,1014.93
2018-09-13T04:45:29.704Z,1014.96
2018-09-13T04:46:04.992Z,1014.96
2018-09-13T04:46:40.246Z,1014.93
2018-09-13T04:47:15.556Z,1014.93
2018-09-13T04:47:50.800Z,1014.95
2018-09-13T04:48:25.987Z,1014.93
2018-09-13T04:49:01.421Z,1014.93
2018-09-13T04:49:36.746Z,1014.95
2018-09-13T04:50:12.215Z,1014.95
2018-09-13T04:50:47.704Z,1014.94
2018-09-13T04:51:22.839Z,1014.94
2018-09-13T04:51:58.287Z,1014.97
2018-09-13T04:52:33.761Z,1014.96
2018-09-13T04:53:09.237Z,1014.99
2018-09-13T04:53:44.806Z,1015.00
2018-09-13T04:54:20.443Z,1014.97
2018-09-13T04:54:55.894Z,1014.97
2018-09-13T04:55:31.185Z,1014.98
2018-09-13T04:56:06.585Z,1014.96
2018-09-13T04:56:41.823Z,1014.99
2018-09-13T04:57:17.259Z,1014.96
2018-09-13T04:57:52.598Z,1014.98
2018-09-13T04:58:28.123Z,1014.99
2018-09-13T04:59:03.824Z,1015.00
2018-09-13T04:59:39.153Z,1014.98
2018-09-13T05:00:14.586Z,1015.00
2018-09-13T05:00:49.565Z,1015.00
2018-09-13T05:01:24.914Z,1014.96
2018-09-13T05:02:00.338Z,1015.00
2018-09-13T05:02:35.922Z,1015.00
2018-09-13T05:03:11.372Z,1014.96
2018-09-13T05:03:46.723Z,1014.97
2018-09-13T05:04:22.015Z,1014.97
2018-09-13T05:04:57.251Z,1014.95
2018-09-13T05:05:32.662Z,1014.96
2018-09-13T05:06:07.945Z,1014.92
2018-09-13T05:06:43.441Z,1014.94
2018-09-13T05:07:19.039Z,1014.91
2018-09-13T05:07:54.441Z,1014.92
2018-09-13T05:08:29.730Z,1014.91
2018-09-13T05:09:05.132Z,1014.90
2018-09-13T05:09:40.639Z,1014.90
2018-09-13T05:10:15.929Z,1014.88
2018-09-13T05:10:51.226Z,1014.90
2018-09-13T05:11:26.725Z,1014.88
2018-09-13T05:12:02.464Z,1014.90
2018-09-13T05:12:37.919Z,1014.92
2018-09-13T05:13:13.363Z,1014.90
2018-09-13T05:13:48.809Z,1014.92
2018-09-13T05:14:24.201Z,1014.91
2018-09-13T05:14:59.538Z,1014.92
2018-09-13T05:15:34.772Z,1014.89
2018-09-13T05:16:10.268Z,1014.91
2018-09-13T05:16:45.484Z,1014.89
2018-09-13T05:17:20.501Z,1014.90
2018-09-13T05:17:56.276Z,1014.90
2018-09-13T05:18:31.610Z,1014.88
2018-09-13T05:19:07.007Z,1014.91
2018-09-13T05:19:42.595Z,1014.93
2018-09-13T05:20:18.327Z,1014.91
2018-09-13T05:20:53.765Z,1014.92
2018-09-13T05:21:28.994Z,1014.91
2018-09-13T05:22:04.607Z,1014.90
2018-09-13T05:22:40.234Z,1014.92
2018-09-13T05:23:15.391Z,1014.95
2018-09-13T05:23:50.555Z,1014.96
2018-09-13T05:24:26.314Z,1014.93
2018-09-13T05:25:02.542Z,1014.94
2018-09-13T05:25:37.975Z,1014.92
2018-09-13T05:26:13.384Z,1014.95
2018-09-13T05:26:48.869Z,1014.98
2018-09-13T05:27:24.699Z,1014.98
2018-09-13T05:27:59.846Z,1014.99
2018-09-13T05:28:35.172Z,1015.00
2018-09-13T05:29:10.488Z,1015.00
2018-09-13T05:29:45.627Z,1014.99
2018-09-13T05:30:21.077Z,1015.05
2018-09-13T05:30:56.538Z,1014.96
2018-09-13T05:31:31.848Z,1015.02
2018-09-13T05:32:07.228Z,1014.99
2018-09-13T05:32:42.920Z,1015.00
2018-09-13T05:33:18.331Z,1015.03
2018-09-13T05:33:53.594Z,1015.02
2018-09-13T05:34:28.985Z,1015.00
2018-09-13T05:35:04.361Z,1015.02
2018-09-13T05:35:39.786Z,1015.01
2018-09-13T05:36:15.179Z,1015.02
2018-09-13T05:36:50.371Z,1015.04
2018-09-13T05:37:25.782Z,1015.04
2018-09-13T05:38:01.145Z,1015.01
2018-09-13T05:38:36.573Z,1015.02
2018-09-13T05:39:11.930Z,1015.01
2018-09-13T05:39:47.261Z,1015.00
2018-09-13T05:40:22.403Z,1014.99
2018-09-13T05:40:57.764Z,1015.01
2018-09-13T05:41:33.146Z,1014.98
2018-09-13T05:42:08.269Z,1015.03
2018-09-13T05:42:43.405Z,1014.98
2018-09-13T05:43:18.730Z,1015.02
2018-09-13T05:43:54.167Z,1014.98
2018-09-13T05:44:29.464Z,1014.99
2018-09-13T05:45:05.078Z,1014.99
2018-09-13T05:45:40.521Z,1015.01
2018-09-13T05:46:15.840Z,1015.01
2018-09-13T05:46:51.351Z,1015.04
2018-09-13T05:47:26.973Z,1014.99
2018-09-13T05:48:02.383Z,1015.02
2018-09-13T05:48:38.103Z,1015.02
2018-09-13T05:49:13.479Z,1015.01
2018-09-13T05:49:48.897Z,1015.06
2018-09-13T05:50:24.491Z,1015.06
2018-09-13T05:51:00.289Z,1015.04
2018-09-13T05:51:35.715Z,1015.07
2018-09-13T05:52:10.953Z,1015.08
2018-09-13T05:52:46.149Z,1015.04
2018-09-13T05:53:21.461Z,1015.01
2018-09-13T05:53:57.164Z,1015.00
2018-09-13T05:54:32.526Z,1015.02
2018-09-13T05:55:07.883Z,1015.00
2018-09-13T05:55:43.287Z,1015.01
2018-09-13T05:56:18.739Z,1015.01
2018-09-13T05:56:54.206Z,1015.05
2018-09-13T05:57:29.501Z,1015.06
2018-09-13T05:58:04.961Z,1015.02
2018-09-13T05:58:40.355Z,1015.06
2018-09-13T05:59:15.575Z,1015.03
2018-09-13T05:59:50.790Z,1015.04
2018-09-13T06:00:26.166Z,1015.05
2018-09-13T06:01:01.349Z,1015.02
2018-09-13T06:01:36.797Z,1015.01
2018-09-13T06:02:12.313Z,1015.02
2018-09-13T06:02:47.672Z,1015.07
2018-09-13T06:03:23.050Z,1015.03
2018-09-13T06:03:58.411Z,1015.05
2018-09-13T06:04:33.624Z,1015.05
2018-09-13T06:05:09.059Z,1015.07
2018-09-13T06:05:44.385Z,1015.07
2018-09-13T06:06:19.726Z,1015.08
2018-09-13T06:06:55.221Z,1015.06
2018-09-13T06:07:30.628Z,1015.09
2018-09-13T06:08:06.022Z,1015.08
2018-09-13T06:08:41.244Z,1015.04
2018-09-13T06:09:16.582Z,1015.06
2018-09-13T06:09:52.329Z,1015.05
2018-09-13T06:10:27.668Z,1015.04
2018-09-13T06:11:02.867Z,1015.05
2018-09-13T06:11:38.168Z,1015.07
2018-09-13T06:12:13.388Z,1015.07
2018-09-13T06:12:48.618Z,1015.05
2018-09-13T06:13:23.759Z,1015.01
2018-09-13T06:13:59.083Z,1015.03
2018-09-13T06:14:34.399Z,1015.07
2018-09-13T06:15:09.713Z,1015.08
2018-09-13T06:15:45.174Z,1015.06
2018-09-13T06:16:20.277Z,1015.06
2018-09-13T06:16:55.729Z,1015.08
2018-09-13T06:17:30.937Z,1015.07
2018-09-13T06:18:06.501Z,1015.09
2018-09-13T06:18:41.800Z,1015.07
2018-09-13T06:19:17.318Z,1015.06
2018-09-13T06:19:52.586Z,1015.07
2018-09-13T06:20:28.262Z,1015.09
2018-09-13T06:21:03.734Z,1015.10
2018-09-13T06:21:39.139Z,1015.06
2018-09-13T06:22:14.790Z,1015.06
2018-09-13T06:22:50.387Z,1015.07
2018-09-13T06:23:25.830Z,1015.04
2018-09-13T06:24:01.441Z,1015.09
2018-09-13T06:24:36.665Z,1015.08
2018-09-13T06:25:12.226Z,1015.05
2018-09-13T06:25:47.547Z,1015.04
2018-09-13T06:26:23.200Z,1015.07
2018-09-13T06:26:58.422Z,1015.07
2018-09-13T06:27:33.712Z,1015.08
2018-09-13T06:28:09.163Z,1015.09
2018-09-13T06:28:44.356Z,1015.04
2018-09-13T06:29:19.629Z,1015.04
2018-09-13T06:29:55.111Z,1015.06
2018-09-13T06:30:30.397Z,1015.04
2018-09-13T06:31:05.928Z,1015.05
2018-09-13T06:31:41.570Z,1015.08
2018-09-13T06:32:16.904Z,1015.07
2018-09-13T06:32:52.196Z,1015.09
2018-09-13T06:33:27.848Z,1015.06
2018-09-13T06:34:03.560Z,1015.08
2018-09-13T06:34:38.827Z,1015.06
2018-09-13T06:35:14.240Z,1015.06
2018-09-13T06:35:49.434Z,1015.07
2018-09-13T06:36:24.712Z,1015.03
2018-09-13T06:37:00.132Z,1015.05
2018-09-13T06:37:35.589Z,1015.06
2018-09-13T06:38:11.364Z,1015.10
2018-09-13T06:38:46.804Z,1015.07
2018-09-13T06:39:22.265Z,1015.08
2018-09-13T06:39:57.522Z,1015.07
2018-09-13T06:40:32.793Z,1015.07
2018-09-13T06:41:08.021Z,1015.10
2018-09-13T06:41:43.661Z,1015.08
2018-09-13T06:42:18.960Z,1015.08
2018-09-13T06:42:54.124Z,1015.09
2018-09-13T06:43:29.459Z,1015.08
2018-09-13T06:44:04.810Z,1015.16
2018-09-13T06:44:40.441Z,1015.15
2018-09-13T06:45:15.907Z,1015.11
2018-09-13T06:45:51.223Z,1015.13
2018-09-13T06:46:26.585Z,1015.14
2018-09-13T06:47:02.262Z,1015.14
2018-09-13T06:47:37.724Z,1015.14
2018-09-13T06:48:13.240Z,1015.16
2018-09-13T06:48:48.901Z,1015.14
2018-09-13T06:49:24.213Z,1015.11
2018-09-13T06:49:59.438Z,1015.12
2018-09-13T06:50:34.859Z,1015.10
2018-09-13T06:51:10.113Z,1015.09
2018-09-13T06:51:45.404Z,1015.06
2018-09-13T06:52:21.061Z,1015.08
2018-09-13T06:52:56.216Z,1015.06
2018-09-13T06:53:31.339Z,1015.09
2018-09-13T06:54:06.632Z,1015.11
2018-09-13T06:54:42.059Z,1015.08
2018-09-13T06:55:17.400Z,1015.05
2018-09-13T06:55:52.750Z,1015.09
2018-09-13T06:56:27.995Z,1015.09
2018-09-13T06:57:03.431Z,1015.06
2018-09-13T06:57:38.656Z,1015.08
2018-09-13T06:58:14.387Z,1015.08
2018-09-13T06:58:49.580Z,1015.03
2018-09-13T06:59:25.016Z,1015.06
2018-09-13T07:00:00.346Z,1015.07
2018-09-13T07:00:35.677Z,1015.06
2018-09-13T07:01:11.393Z,1015.06
2018-09-13T07:01:46.570Z,1015.09
2018-09-13T07:02:21.864Z,1015.06
2018-09-13T07:02:57.220Z,1015.05
2018-09-13T07:03:32.698Z,1015.06
2018-09-13T07:04:07.913Z,1015.01
2018-09-13T07:04:43.473Z,1015.09
2018-09-13T07:05:18.792Z,1015.07
2018-09-13T07:05:54.216Z,1015.05
2018-09-13T07:06:29.598Z,1015.03
2018-09-13T07:07:05.006Z,1015.04
2018-09-13T07:07:40.431Z,1015.04
2018-09-13T07:08:15.669Z,1015.07